Time;durP1;ratioP1;P1;durP2;ratioP2;P2;SDS_P1;SDS_P2;PMS_P1;PMS_P2;Temp;Humidity;BMP_temperature;BMP_pressure;BME280_temperature;BME280_humidity;BME280_pressure;Samples;Min_cycle;Max_cycle;Signal;HPM_P1;HPM_P2
2023/11/02 00:01:08;;;;;;;9.17;2.93;;;;;8.20;95799.00;;;;5011817;28;20206;-84
2023/11/02 00:03:57;;;;;;;12.37;3.83;;;;;8.40;95794.00;;;;5009278;28;20225;-84
2023/11/02 00:06:49;;;;;;;8.87;2.80;;;;;8.30;95787.00;;;;5008260;28;20230;-84
2023/11/02 00:09:40;;;;;;;7.07;2.33;;;;;8.30;95798.00;;;;5012540;28;20213;-85
2023/11/02 00:12:30;;;;;;;5.83;2.03;;;;;8.30;95790.00;;;;5013517;28;20206;-86
2023/11/02 00:15:21;;;;;;;10.10;3.20;;;;;8.30;95790.00;;;;5014017;28;20206;-85
2023/11/02 00:18:11;;;;;;;13.80;4.47;;;;;8.20;95787.00;;;;5013700;28;20209;-85
2023/11/02 00:21:00;;;;;;;13.13;4.20;;;;;8.60;95786.00;;;;5014090;28;20590;-84
2023/11/02 00:23:49;;;;;;;5.33;2.00;;;;;8.60;95784.00;;;;5013248;28;20202;-84
2023/11/02 00:26:38;;;;;;;9.50;3.03;;;;;8.70;95776.00;;;;5008813;28;20245;-86
2023/11/02 00:29:27;;;;;;;7.77;2.53;;;;;8.80;95771.00;;;;5008557;28;20206;-84
2023/11/02 00:32:16;;;;;;;10.50;3.53;;;;;8.50;95772.00;;;;5015105;28;20388;-85
2023/11/02 00:35:07;;;;;;;14.47;4.67;;;;;8.30;95770.00;;;;5013593;28;20217;-84
2023/11/02 00:37:57;;;;;;;18.57;6.43;;;;;8.30;95762.00;;;;5013926;28;20512;-85
2023/11/02 00:40:46;;;;;;;46.60;41.43;;;;;8.30;95771.00;;;;5011018;28;20687;-85
2023/11/02 00:43:35;;;;;;;11.97;6.20;;;;;8.20;95754.00;;;;5009126;28;20206;-85
2023/11/02 00:46:24;;;;;;;13.90;8.33;;;;;7.90;95770.00;;;;5012212;28;20222;-83
2023/11/02 00:49:20;;;;;;;18.03;12.63;;;;;8.30;95770.00;;;;5012256;28;20198;-84
2023/11/02 00:52:11;;;;;;;17.23;6.87;;;;;8.00;95772.00;;;;5014976;28;20202;-84
2023/11/02 00:55:01;;;;;;;14.40;4.70;;;;;7.80;95765.00;;;;5011617;28;20214;-83
2023/11/02 00:57:50;;;;;;;9.63;3.30;;;;;8.10;95755.00;;;;5010344;28;20202;-85
2023/11/02 01:00:59;;;;;;;21.50;19.03;;;;;8.40;95751.00;;;;5011471;28;20213;-83
2023/11/02 01:03:51;;;;;;;7.13;2.40;;;;;8.30;95749.00;;;;5006558;28;20216;-84
2023/11/02 01:06:40;;;;;;;23.00;18.27;;;;;8.50;95736.00;;;;5007162;28;20238;-85
2023/11/02 01:09:45;;;;;;;7.60;2.60;;;;;8.00;95723.00;;;;5008544;28;20589;-84
2023/11/02 01:12:36;;;;;;;9.23;3.03;;;;;8.10;95734.00;;;;5010794;28;20212;-85
2023/11/02 01:15:58;;;;;;;8.90;2.93;;;;;8.20;95731.00;;;;5010654;28;20248;-84
2023/11/02 01:18:47;;;;;;;14.43;4.57;;;;;8.10;95730.00;;;;5006216;28;20205;-83
2023/11/02 01:21:37;;;;;;;12.00;3.77;;;;;8.30;95725.00;;;;5005774;28;20309;-85
2023/11/02 01:24:29;;;;;;;9.30;3.13;;;;;8.40;95732.00;;;;5010196;28;20206;-84
2023/11/02 01:27:23;;;;;;;6.87;2.33;;;;;8.30;95715.00;;;;5009066;28;20229;-84
2023/11/02 01:30:54;;;;;;;9.07;2.93;;;;;8.40;95705.00;;;;5008571;28;20220;-84
2023/11/02 01:34:00;;;;;;;5.50;1.90;;;;;7.80;95705.00;;;;5005829;28;20217;-83
2023/11/02 01:36:50;;;;;;;16.27;5.13;;;;;7.40;95710.00;;;;5006743;28;20514;-85
2023/11/02 01:40:08;;;;;;;8.27;2.80;;;;;7.70;95722.00;;;;5009908;28;20206;-84
2023/11/02 01:43:00;;;;;;;15.40;4.87;;;;;7.30;95700.00;;;;5007075;28;20210;-82
2023/11/02 01:45:51;;;;;;;7.23;2.37;;;;;7.90;95703.00;;;;5009500;28;20604;-83
2023/11/02 01:48:45;;;;;;;15.50;4.77;;;;;8.10;95703.00;;;;5016195;28;20687;-86
2023/11/02 01:51:36;;;;;;;9.20;3.07;;;;;8.00;95700.00;;;;5021456;28;20737;-84
2023/11/02 01:54:39;;;;;;;9.97;3.23;;;;;7.70;95699.00;;;;5017603;28;20206;-84
2023/11/02 01:57:38;;;;;;;8.17;2.70;;;;;7.80;95697.00;;;;5019253;28;20248;-85
2023/11/02 02:00:34;;;;;;;8.83;2.90;;;;;7.90;95686.00;;;;5020862;28;20202;-86
2023/11/02 02:03:27;;;;;;;7.27;2.53;;;;;7.80;95692.00;;;;5013117;28;20202;-83
2023/11/02 02:06:22;;;;;;;9.57;3.23;;;;;7.60;95688.00;;;;5017000;28;20256;-84
2023/11/02 02:09:23;;;;;;;11.27;3.63;;;;;7.80;95678.00;;;;5017591;28;20701;-85
2023/11/02 02:12:17;;;;;;;7.47;2.53;;;;;7.70;95669.00;;;;5015528;28;20208;-86
2023/11/02 02:15:10;;;;;;;10.50;3.43;;;;;7.60;95681.00;;;;5016778;28;20497;-86
2023/11/02 02:18:07;;;;;;;13.20;4.30;;;;;7.20;95673.00;;;;5015229;28;20228;-84
2023/11/02 02:21:03;;;;;;;10.60;3.57;;;;;7.30;95675.00;;;;5016291;28;20202;-86
2023/11/02 02:23:54;;;;;;;11.87;3.80;;;;;7.50;95677.00;;;;5012702;28;20225;-85
2023/11/02 02:27:07;;;;;;;6.77;2.33;;;;;7.90;95663.00;;;;5011895;28;20226;-86
2023/11/02 02:30:13;;;;;;;10.57;3.50;;;;;8.00;95657.00;;;;5017748;28;20210;-85
2023/11/02 02:33:23;;;;;;;8.30;2.73;;;;;8.10;95664.00;;;;5019315;28;20209;-85
2023/11/02 02:36:17;;;;;;;7.37;2.47;;;;;8.10;95664.00;;;;5020699;28;20708;-86
2023/11/02 02:39:09;;;;;;;15.93;5.23;;;;;8.00;95668.00;;;;5020899;28;20209;-84
2023/11/02 02:42:01;;;;;;;10.13;3.33;;;;;8.10;95670.00;;;;5018552;28;20213;-84
2023/11/02 02:44:52;;;;;;;5.83;2.03;;;;;8.00;95652.00;;;;5021654;28;20693;-85
2023/11/02 02:47:41;;;;;;;6.93;2.37;;;;;8.20;95647.00;;;;5016997;28;20647;-83
2023/11/02 02:50:32;;;;;;;9.40;3.20;;;;;8.40;95655.00;;;;5014733;28;20213;-85
2023/11/02 02:53:25;;;;;;;5.73;2.00;;;;;8.30;95645.00;;;;5013267;28;20707;-86
2023/11/02 02:56:15;;;;;;;6.07;2.13;;;;;8.30;95639.00;;;;5020951;28;20226;-85
2023/11/02 02:59:07;;;;;;;14.50;4.67;;;;;7.70;95641.00;;;;5020676;28;20210;-84
2023/11/02 03:01:58;;;;;;;12.80;4.03;;;;;7.90;95640.00;;;;5018435;28;20593;-84
2023/11/02 03:04:47;;;;;;;10.40;3.40;;;;;7.90;95635.00;;;;5018995;28;20210;-86
2023/11/02 03:07:38;;;;;;;8.50;2.90;;;;;7.80;95642.00;;;;5018091;28;20225;-83
2023/11/02 03:10:28;;;;;;;6.07;2.10;;;;;8.10;95642.00;;;;5013561;28;20225;-86
2023/11/02 03:13:18;;;;;;;4.73;1.67;;;;;7.90;95644.00;;;;5019657;28;20209;-87
2023/11/02 03:16:10;;;;;;;14.67;4.70;;;;;8.00;95644.00;;;;5017895;28;20238;-85
2023/11/02 03:19:00;;;;;;;15.07;4.60;;;;;7.70;95632.00;;;;5017881;28;20202;-86
2023/11/02 03:21:49;;;;;;;11.87;3.87;;;;;7.20;95629.00;;;;5016735;28;20210;-86
2023/11/02 03:24:46;;;;;;;9.23;3.03;;;;;7.30;95631.00;;;;5029135;28;20202;-84
2023/11/02 03:27:48;;;;;;;10.67;3.53;;;;;7.40;95627.00;;;;5026384;28;20482;-84
2023/11/02 03:30:46;;;;;;;9.57;3.10;;;;;7.50;95633.00;;;;5026070;28;20209;-85
2023/11/02 03:33:39;;;;;;;8.77;3.03;;;;;7.50;95621.00;;;;5026002;28;20213;-85
2023/11/02 03:36:38;;;;;;;8.33;2.87;;;;;7.90;95621.00;;;;5041345;28;20706;-84
2023/11/02 03:39:38;;;;;;;6.23;2.20;;;;;7.70;95624.00;;;;5041746;28;20201;-86
2023/11/02 03:42:43;;;;;;;9.53;3.23;;;;;7.90;95603.00;;;;5038222;28;20209;-86
2023/11/02 03:45:43;;;;;;;11.43;3.70;;;;;7.70;95594.00;;;;5036084;28;20235;-85
2023/11/02 03:48:38;;;;;;;7.57;2.60;;;;;7.30;95605.00;;;;5032602;28;20244;-84
2023/11/02 03:51:38;;;;;;;9.93;3.30;;;;;7.60;95606.00;;;;5042915;28;20209;-84
2023/11/02 03:54:38;;;;;;;7.63;2.57;;;;;7.60;95605.00;;;;5035914;28;20209;-84
2023/11/02 03:57:31;;;;;;;7.70;2.57;;;;;7.60;95604.00;;;;5033312;28;20257;-84
2023/11/02 04:00:22;;;;;;;6.17;2.10;;;;;7.60;95605.00;;;;5038551;28;20565;-86
2023/11/02 04:03:12;;;;;;;14.03;4.57;;;;;7.30;95592.00;;;;5037806;28;20202;-85
2023/11/02 04:06:04;;;;;;;13.37;4.20;;;;;7.60;95591.00;;;;5037337;28;20283;-84
2023/11/02 04:08:56;;;;;;;13.30;4.27;;;;;7.20;95581.00;;;;5037300;28;20205;-84
2023/11/02 04:11:57;;;;;;;37.13;27.87;;;;;7.30;95576.00;;;;5030754;28;20208;-86
2023/11/02 04:14:49;;;;;;;11.20;4.07;;;;;7.30;95562.00;;;;5030554;28;20212;-86
2023/11/02 04:17:39;;;;;;;10.40;3.50;;;;;7.20;95563.00;;;;5033819;28;20205;-86
2023/11/02 04:20:29;;;;;;;9.43;3.10;;;;;7.20;95562.00;;;;5028715;28;20214;-84
2023/11/02 04:23:19;;;;;;;8.60;2.90;;;;;7.80;95562.00;;;;5034421;28;20213;-86
2023/11/02 04:26:08;;;;;;;14.97;4.67;;;;;7.60;95562.00;;;;5034601;28;20229;-85
2023/11/02 04:28:57;;;;;;;14.23;4.50;;;;;7.10;95555.00;;;;5032305;28;20230;-86
2023/11/02 04:31:46;;;;;;;9.17;3.03;;;;;7.00;95569.00;;;;5030027;28;20693;-85
2023/11/02 04:34:37;;;;;;;6.47;2.30;;;;;7.60;95559.00;;;;5024613;28;20213;-85
2023/11/02 04:37:26;;;;;;;8.67;2.93;;;;;7.60;95559.00;;;;5016230;28;20245;-85
2023/11/02 04:40:15;;;;;;;9.97;3.30;;;;;7.40;95564.00;;;;5013551;28;20593;-85
2023/11/02 04:43:05;;;;;;;16.07;4.97;;;;;7.40;95563.00;;;;5013260;28;20714;-84
2023/11/02 04:45:54;;;;;;;11.33;3.67;;;;;7.50;95553.00;;;;5014508;28;20230;-83
2023/11/02 04:48:43;;;;;;;18.87;5.73;;;;;7.70;95546.00;;;;5015080;28;20718;-86
2023/11/02 04:51:33;;;;;;;8.70;2.87;;;;;7.30;95539.00;;;;5011996;28;20256;-83
2023/11/02 04:54:26;;;;;;;7.10;2.47;;;;;7.10;95548.00;;;;5005377;28;20201;-85
2023/11/02 04:57:15;;;;;;;7.80;2.63;;;;;6.80;95555.00;;;;5007369;28;21221;-86
2023/11/02 05:00:05;;;;;;;13.47;4.27;;;;;7.10;95550.00;;;;5009807;28;20714;-85
2023/11/02 05:02:54;;;;;;;7.93;2.63;;;;;7.50;95543.00;;;;5011288;28;20691;-84
2023/11/02 05:05:43;;;;;;;9.07;2.97;;;;;7.40;95533.00;;;;5008653;28;20280;-85
2023/11/02 05:08:33;;;;;;;8.77;2.97;;;;;7.50;95523.00;;;;5006462;28;20226;-85
2023/11/02 05:11:22;;;;;;;6.77;2.30;;;;;7.60;95528.00;;;;5011573;28;20576;-84
2023/11/02 05:14:11;;;;;;;10.80;3.53;;;;;7.50;95523.00;;;;5010838;28;20606;-86
2023/11/02 05:17:00;;;;;;;16.83;5.13;;;;;7.50;95519.00;;;;5010138;28;20226;-83
2023/11/02 05:19:49;;;;;;;8.90;2.97;;;;;7.30;95515.00;;;;5013215;28;20202;-83
2023/11/02 05:22:38;;;;;;;10.00;3.27;;;;;6.80;95513.00;;;;5005634;28;20240;-85
2023/11/02 05:25:29;;;;;;;11.87;3.77;;;;;7.30;95510.00;;;;5011346;28;20233;-86
2023/11/02 05:28:18;;;;;;;7.13;2.40;;;;;7.40;95509.00;;;;5011159;28;20225;-84
2023/11/02 05:31:07;;;;;;;11.93;3.90;;;;;7.00;95503.00;;;;5011680;28;20209;-84
2023/11/02 05:33:56;;;;;;;5.67;1.87;;;;;6.70;95497.00;;;;5015413;28;20217;-84
2023/11/02 05:36:45;;;;;;;9.50;3.03;;;;;6.90;95499.00;;;;5025501;28;20220;-86
2023/11/02 05:39:34;;;;;;;7.07;2.43;;;;;6.70;95494.00;;;;5027666;28;20210;-83
2023/11/02 05:42:25;;;;;;;4.63;1.73;;;;;7.50;95502.00;;;;5030288;28;20771;-84
2023/11/02 05:45:14;;;;;;;15.17;4.87;;;;;7.50;95492.00;;;;5030270;28;20208;-85
2023/11/02 05:48:04;;;;;;;12.73;4.13;;;;;7.40;95492.00;;;;5024546;28;20225;-85
2023/11/02 05:50:53;;;;;;;6.40;2.17;;;;;7.40;95485.00;;;;5033595;28;20209;-86
2023/11/02 05:53:42;;;;;;;6.00;2.07;;;;;7.20;95471.00;;;;5030346;28;20200;-84
2023/11/02 05:56:32;;;;;;;14.40;4.43;;;;;7.60;95479.00;;;;5025266;28;20225;-83
2023/11/02 05:59:22;;;;;;;9.20;2.90;;;;;7.40;95473.00;;;;5040220;28;20781;-83
2023/11/02 06:02:12;;;;;;;18.60;5.70;;;;;6.80;95478.00;;;;5035357;28;20216;-85
2023/11/02 06:05:01;;;;;;;13.73;4.33;;;;;6.90;95470.00;;;;5026327;28;20247;-83
2023/11/02 06:07:51;;;;;;;8.43;2.83;;;;;6.90;95492.00;;;;5029358;28;20607;-83
2023/11/02 06:10:40;;;;;;;12.87;4.07;;;;;7.20;95479.00;;;;5028476;28;20209;-84
2023/11/02 06:13:29;;;;;;;6.20;2.10;;;;;7.10;95480.00;;;;5028359;28;20599;-82
2023/11/02 06:16:21;;;;;;;5.43;2.07;;;;;7.20;95484.00;;;;5027390;28;20229;-86
2023/11/02 06:19:10;;;;;;;16.40;5.07;;;;;7.60;95479.00;;;;5032122;28;20201;-85
2023/11/02 06:21:59;;;;;;;9.97;3.10;;;;;7.30;95487.00;;;;5026710;28;20224;-84
2023/11/02 06:24:48;;;;;;;6.43;2.23;;;;;7.20;95481.00;;;;5025518;28;20212;-83
2023/11/02 06:27:37;;;;;;;8.57;2.87;;;;;7.40;95491.00;;;;5030353;28;20212;-83
2023/11/02 06:30:26;;;;;;;10.13;3.30;;;;;7.50;95494.00;;;;5023549;28;20603;-85
2023/11/02 06:33:22;;;;;;;15.27;4.83;;;;;7.60;95497.00;;;;5030634;28;20201;-83
2023/11/02 06:36:11;;;;;;;19.37;5.97;;;;;7.50;95480.00;;;;5009943;28;20237;-83
2023/11/02 06:39:00;;;;;;;16.93;5.33;;;;;7.60;95491.00;;;;5012921;28;20201;-83
2023/11/02 06:41:49;;;;;;;15.20;4.70;;;;;7.40;95487.00;;;;5016575;28;20576;-83
2023/11/02 06:44:43;;;;;;;8.17;2.70;;;;;7.60;95488.00;;;;4999516;28;20319;-84
2023/11/02 06:47:32;;;;;;;9.27;3.07;;;;;7.30;95488.00;;;;5003147;28;20233;-82
2023/11/02 06:50:22;;;;;;;14.00;4.37;;;;;7.40;95483.00;;;;5011029;28;20210;-84
2023/11/02 06:53:11;;;;;;;12.97;4.10;;;;;7.50;95485.00;;;;5007935;28;20206;-84
2023/11/02 06:56:01;;;;;;;12.43;3.93;;;;;7.90;95482.00;;;;5009591;28;20229;-83
2023/11/02 06:58:50;;;;;;;18.23;5.60;;;;;7.60;95483.00;;;;5004913;28;20585;-83
2023/11/02 07:01:39;;;;;;;11.90;3.77;;;;;7.90;95475.00;;;;5004532;28;20500;-84
2023/11/02 07:04:28;;;;;;;13.77;4.37;;;;;7.90;95475.00;;;;5001947;28;20206;-84
2023/11/02 07:07:19;;;;;;;9.70;3.20;;;;;8.20;95475.00;;;;5009353;28;20234;-84
2023/11/02 07:10:09;;;;;;;16.87;5.20;;;;;8.00;95459.00;;;;5006717;28;20233;-85
2023/11/02 07:12:58;;;;;;;7.00;2.43;;;;;7.90;95449.00;;;;5008487;28;20202;-83
2023/11/02 07:15:48;;;;;;;9.90;3.20;;;;;8.40;95442.00;;;;5008679;28;20218;-85
2023/11/02 07:18:37;;;;;;;6.97;2.40;;;;;7.80;95443.00;;;;5011563;28;20210;-82
2023/11/02 07:21:26;;;;;;;13.70;4.23;;;;;7.50;95451.00;;;;5009843;28;20214;-85
2023/11/02 07:24:16;;;;;;;10.63;3.43;;;;;8.10;95440.00;;;;5009342;28;20593;-83
2023/11/02 07:27:06;;;;;;;19.83;6.03;;;;;8.20;95451.00;;;;5007782;28;20943;-84
2023/11/02 07:29:55;;;;;;;12.00;3.90;;;;;8.40;95440.00;;;;5009126;28;20234;-84
2023/11/02 07:32:44;;;;;;;8.70;3.00;;;;;8.60;95446.00;;;;5000819;28;20206;-84
2023/11/02 07:35:33;;;;;;;10.10;3.33;;;;;8.90;95432.00;;;;5032418;28;20750;-83
2023/11/02 07:38:22;;;;;;;12.83;4.10;;;;;8.80;95431.00;;;;5031836;28;20201;-83
2023/11/02 07:41:14;;;;;;;15.60;5.00;;;;;8.70;95435.00;;;;5023224;28;20205;-83
2023/11/02 07:44:03;;;;;;;13.67;4.40;;;;;8.80;95444.00;;;;5034058;28;20205;-86
2023/11/02 07:46:52;;;;;;;15.70;5.00;;;;;8.90;95445.00;;;;5038913;28;20468;-84
2023/11/02 07:49:42;;;;;;;10.23;3.40;;;;;8.60;95441.00;;;;5033773;28;20225;-85
2023/11/02 07:52:31;;;;;;;8.93;3.00;;;;;8.50;95442.00;;;;5035005;28;20201;-84
2023/11/02 07:55:20;;;;;;;8.23;2.93;;;;;8.70;95434.00;;;;5045039;28;20214;-83
2023/11/02 07:58:11;;;;;;;18.83;5.80;;;;;8.60;95419.00;;;;5044959;28;20201;-82
2023/11/02 08:01:00;;;;;;;13.83;4.57;;;;;8.90;95413.00;;;;5047708;28;20220;-84
2023/11/02 08:03:49;;;;;;;9.53;3.13;;;;;9.10;95422.00;;;;5038672;28;20211;-84
2023/11/02 08:06:38;;;;;;;8.50;2.87;;;;;9.70;95409.00;;;;5041636;28;20276;-85
2023/11/02 08:09:27;;;;;;;18.97;5.80;;;;;9.90;95418.00;;;;5033928;28;20248;-84
2023/11/02 08:12:17;;;;;;;17.27;5.50;;;;;10.20;95391.00;;;;5031809;28;20205;-85
2023/11/02 08:15:08;;;;;;;16.27;5.23;;;;;10.40;95399.00;;;;5032068;28;20208;-85
2023/11/02 08:17:57;;;;;;;10.53;3.60;;;;;10.60;95386.00;;;;5032411;28;20216;-85
2023/11/02 08:20:46;;;;;;;10.93;3.57;;;;;10.50;95389.00;;;;5031607;28;20340;-85
2023/11/02 08:23:36;;;;;;;9.03;2.97;;;;;10.50;95380.00;;;;5032743;28;20205;-84
2023/11/02 08:26:25;;;;;;;9.00;2.97;;;;;10.90;95371.00;;;;5032513;28;20703;-82
2023/11/02 08:29:14;;;;;;;15.87;5.07;;;;;10.30;95367.00;;;;5033457;28;20710;-83
2023/11/02 08:32:05;;;;;;;14.57;4.63;;;;;10.80;95367.00;;;;5034613;28;20674;-85
2023/11/02 08:34:54;;;;;;;8.63;2.93;;;;;10.50;95351.00;;;;5017166;28;20214;-84
2023/11/02 08:37:43;;;;;;;9.70;3.23;;;;;10.50;95335.00;;;;5012494;28;20225;-85
2023/11/02 08:40:32;;;;;;;9.03;3.10;;;;;10.20;95343.00;;;;5011563;28;20214;-84
2023/11/02 08:43:21;;;;;;;8.40;2.90;;;;;10.30;95346.00;;;;5011789;28;20550;-85
2023/11/02 08:46:16;;;;;;;15.33;4.87;;;;;10.30;95336.00;;;;5011676;28;20620;-85
2023/11/02 08:49:07;;;;;;;18.87;6.07;;;;;10.60;95342.00;;;;5011347;28;20613;-84
2023/11/02 08:51:56;;;;;;;9.80;3.30;;;;;11.00;95330.00;;;;5013066;28;20216;-84
2023/11/02 08:54:45;;;;;;;10.37;3.37;;;;;11.20;95341.00;;;;5007017;28;20214;-84
2023/11/02 08:57:35;;;;;;;9.30;3.13;;;;;12.10;95343.00;;;;5005936;28;20213;-83
2023/11/02 09:00:24;;;;;;;10.23;3.60;;;;;11.50;95339.00;;;;5024228;28;20196;-85
2023/11/02 09:03:13;;;;;;;14.50;4.93;;;;;12.50;95331.00;;;;5011133;28;20216;-85
2023/11/02 09:06:07;;;;;;;11.60;4.10;;;;;13.00;95334.00;;;;5016903;28;20225;-84
2023/11/02 09:08:56;;;;;;;6.27;2.23;;;;;13.30;95333.00;;;;5000305;28;20710;-84
2023/11/02 09:11:46;;;;;;;8.30;2.90;;;;;12.90;95326.00;;;;5005112;28;20239;-84
2023/11/02 09:14:35;;;;;;;8.33;2.97;;;;;13.30;95325.00;;;;5011422;28;20224;-84
2023/11/02 09:17:24;;;;;;;4.20;1.70;;;;;13.50;95304.00;;;;5010837;28;20217;-83
2023/11/02 09:20:14;;;;;;;22.40;7.43;;;;;13.50;95318.00;;;;5009380;28;20209;-84
2023/11/02 09:23:04;;;;;;;8.70;3.13;;;;;13.80;95320.00;;;;5010595;28;20232;-83
2023/11/02 09:25:54;;;;;;;8.90;3.30;;;;;13.80;95308.00;;;;5002331;28;20226;-84
2023/11/02 09:28:43;;;;;;;17.27;5.77;;;;;13.90;95303.00;;;;5008957;28;20206;-83
2023/11/02 09:31:33;;;;;;;8.53;3.17;;;;;14.30;95304.00;;;;5011597;28;20202;-84
2023/11/02 09:34:22;;;;;;;12.20;4.40;;;;;14.20;95310.00;;;;5013183;28;20209;-85
2023/11/02 09:37:11;;;;;;;21.27;6.83;;;;;14.00;95303.00;;;;5026385;28;20233;-82
2023/11/02 09:40:03;;;;;;;7.70;2.90;;;;;14.20;95304.00;;;;5028891;28;20207;-84
2023/11/02 09:42:52;;;;;;;10.17;3.43;;;;;13.30;95293.00;;;;5029137;28;20213;-85
2023/11/02 09:45:42;;;;;;;8.70;2.93;;;;;13.60;95275.00;;;;5030555;28;20225;-84
2023/11/02 09:48:31;;;;;;;8.93;3.07;;;;;14.30;95269.00;;;;5032086;28;20209;-84
2023/11/02 09:51:20;;;;;;;7.80;2.90;;;;;15.20;95261.00;;;;5032307;28;20228;-84
2023/11/02 09:54:11;;;;;;;17.30;6.30;;;;;15.20;95270.00;;;;5029411;28;20205;-83
2023/11/02 09:57:01;;;;;;;13.00;5.00;;;;;15.00;95268.00;;;;5028574;28;20247;-83
2023/11/02 09:59:51;;;;;;;10.60;5.30;;;;;15.80;95263.00;;;;5027064;28;20205;-82
2023/11/02 10:02:40;;;;;;;10.80;4.37;;;;;16.30;95253.00;;;;5029842;28;20209;-84
2023/11/02 10:05:30;;;;;;;12.10;5.03;;;;;16.10;95256.00;;;;5029450;28;20221;-84
2023/11/02 10:08:19;;;;;;;16.63;6.40;;;;;15.80;95261.00;;;;5029000;28;20955;-82
2023/11/02 10:11:14;;;;;;;14.40;6.10;;;;;14.90;95255.00;;;;5028011;28;20241;-85
2023/11/02 10:14:04;;;;;;;14.80;5.27;;;;;15.20;95251.00;;;;5027602;28;20213;-84
2023/11/02 10:17:02;;;;;;;21.93;7.30;;;;;15.20;95231.00;;;;5028774;28;20218;-83
2023/11/02 10:19:52;;;;;;;13.23;4.73;;;;;16.30;95238.00;;;;5025264;28;20209;-82
2023/11/02 10:22:42;;;;;;;8.37;3.63;;;;;16.50;95244.00;;;;5026682;28;20220;-83
2023/11/02 10:25:31;;;;;;;12.90;5.50;;;;;16.60;95249.00;;;;5026496;28;20619;-84
2023/11/02 10:28:21;;;;;;;11.10;5.10;;;;;16.50;95244.00;;;;5028910;28;20209;-85
2023/11/02 10:31:11;;;;;;;23.53;10.00;;;;;17.10;95228.00;;;;5027506;28;20213;-82
2023/11/02 10:34:01;;;;;;;12.37;7.03;;;;;17.50;95218.00;;;;5027842;28;20240;-83
2023/11/02 10:36:50;;;;;;;16.87;8.13;;;;;17.40;95208.00;;;;5025983;28;20229;-84
2023/11/02 10:39:39;;;;;;;11.30;5.13;;;;;18.00;95184.00;;;;5029168;28;20231;-84
2023/11/02 10:42:29;;;;;;;11.10;5.50;;;;;18.20;95204.00;;;;5022805;28;20209;-86
2023/11/02 10:45:18;;;;;;;20.20;7.70;;;;;17.60;95190.00;;;;5028109;28;20205;-84
2023/11/02 10:48:10;;;;;;;28.87;10.50;;;;;17.70;95188.00;;;;5025511;28;20251;-85
2023/11/02 10:51:02;;;;;;;12.07;5.73;;;;;17.70;95181.00;;;;5030562;28;20225;-83
2023/11/02 10:54:03;;;;;;;11.23;4.83;;;;;17.90;95173.00;;;;5035792;28;20209;-86
2023/11/02 10:57:00;;;;;;;18.87;6.90;;;;;18.00;95179.00;;;;5035534;28;20657;-82
2023/11/02 10:59:49;;;;;;;12.60;4.80;;;;;17.90;95176.00;;;;5028222;28;20210;-85
2023/11/02 11:02:38;;;;;;;9.57;4.60;;;;;17.90;95159.00;;;;5029258;28;20206;-85
2023/11/02 11:05:29;;;;;;;11.73;4.73;;;;;18.00;95149.00;;;;5037997;28;20206;-84
2023/11/02 11:08:19;;;;;;;16.73;6.60;;;;;17.90;95161.00;;;;5031339;28;20670;-85
2023/11/02 11:11:09;;;;;;;23.10;9.10;;;;;17.20;95148.00;;;;5030801;28;20243;-83
2023/11/02 11:13:58;;;;;;;9.73;4.23;;;;;16.70;95144.00;;;;5032881;28;20211;-86
2023/11/02 11:16:49;;;;;;;12.87;5.30;;;;;17.00;95136.00;;;;5033539;28;20618;-83
2023/11/02 11:19:38;;;;;;;8.50;3.83;;;;;17.00;95133.00;;;;5031944;28;20675;-83
2023/11/02 11:22:31;;;;;;;11.30;4.70;;;;;17.60;95129.00;;;;5031425;28;20201;-85
2023/11/02 11:25:21;;;;;;;19.43;7.77;;;;;17.90;95131.00;;;;5035037;28;20220;-83
2023/11/02 11:28:27;;;;;;;20.27;7.53;;;;;18.10;95131.00;;;;5030691;28;20260;-85
2023/11/02 11:31:53;;;;;;;20.80;8.33;;;;;18.10;95118.00;;;;5028456;28;20485;-83
2023/11/02 11:35:09;;;;;;;11.67;4.93;;;;;18.10;95103.00;;;;5028049;28;20209;-84
2023/11/02 11:38:00;;;;;;;12.63;5.13;;;;;18.10;95115.00;;;;5029249;28;20205;-82
2023/11/02 11:40:50;;;;;;;12.50;5.10;;;;;18.10;95106.00;;;;5038420;28;20196;-84
2023/11/02 11:44:03;;;;;;;12.70;5.73;;;;;18.00;95100.00;;;;5042201;28;20200;-84
2023/11/02 11:46:53;;;;;;;19.37;7.57;;;;;17.80;95085.00;;;;5040498;28;20244;-85
2023/11/02 11:49:48;;;;;;;10.87;4.53;;;;;17.60;95087.00;;;;5041348;28;20303;-86
2023/11/02 11:52:37;;;;;;;16.03;5.70;;;;;17.50;95089.00;;;;5036181;28;20197;-83
2023/11/02 11:55:35;;;;;;;13.20;5.00;;;;;17.30;95069.00;;;;5024881;28;20209;-83
2023/11/02 11:58:48;;;;;;;9.33;3.90;;;;;17.40;95060.00;;;;5029977;28;20837;-83
2023/11/02 12:01:37;;;;;;;6.50;2.97;;;;;17.40;95058.00;;;;5029660;28;20208;-83
2023/11/02 12:04:49;;;;;;;11.93;4.43;;;;;17.40;95051.00;;;;5031382;28;20205;-84
2023/11/02 12:07:38;;;;;;;8.40;3.43;;;;;17.50;95043.00;;;;5030526;28;20662;-84
2023/11/02 12:10:28;;;;;;;8.70;3.63;;;;;17.20;95040.00;;;;5030907;28;20201;-82
2023/11/02 12:13:18;;;;;;;21.73;7.70;;;;;17.30;95035.00;;;;5028795;28;20212;-83
2023/11/02 12:16:08;;;;;;;23.30;8.17;;;;;17.40;95028.00;;;;5036802;28;20228;-84
2023/11/02 12:18:57;;;;;;;15.37;5.63;;;;;17.30;95037.00;;;;5035351;28;20461;-83
2023/11/02 12:21:57;;;;;;;16.37;5.90;;;;;17.40;95029.00;;;;5038122;28;20620;-83
2023/11/02 12:24:56;;;;;;;10.80;4.07;;;;;17.30;95030.00;;;;5039604;28;20209;-83
2023/11/02 12:27:56;;;;;;;14.40;5.27;;;;;17.30;95030.00;;;;5037938;28;20230;-84
2023/11/02 12:30:47;;;;;;;12.67;5.10;;;;;17.00;95019.00;;;;5029791;28;20209;-83
2023/11/02 12:33:36;;;;;;;11.03;4.73;;;;;16.90;95004.00;;;;5032642;28;20239;-83
2023/11/02 12:36:26;;;;;;;10.90;4.60;;;;;16.60;95005.00;;;;5045477;28;20227;-83
2023/11/02 12:39:17;;;;;;;15.83;5.97;;;;;16.70;95004.00;;;;5038797;28;20209;-85
2023/11/02 12:42:09;;;;;;;20.73;7.23;;;;;17.10;95000.00;;;;5034794;28;20201;-83
2023/11/02 12:44:59;;;;;;;10.83;4.43;;;;;17.20;95010.00;;;;5033048;28;20237;-83
2023/11/02 12:47:50;;;;;;;13.33;5.47;;;;;17.20;94993.00;;;;5037131;28;20276;-85
2023/11/02 12:50:40;;;;;;;14.03;5.87;;;;;17.30;94990.00;;;;5034482;28;20717;-85
2023/11/02 12:53:30;;;;;;;10.90;4.73;;;;;17.30;94994.00;;;;5030877;28;20613;-84
2023/11/02 12:56:23;;;;;;;21.60;8.03;;;;;17.00;94991.00;;;;5030622;28;20217;-85
2023/11/02 12:59:12;;;;;;;21.50;7.60;;;;;17.00;94989.00;;;;5030019;28;20217;-84
2023/11/02 13:02:03;;;;;;;9.67;4.23;;;;;17.10;94990.00;;;;5030076;28;20212;-86
2023/11/02 13:04:55;;;;;;;14.50;6.63;;;;;16.90;94985.00;;;;5030954;28;20201;-85
2023/11/02 13:07:44;;;;;;;9.93;4.37;;;;;16.80;94977.00;;;;5035901;28;20204;-84
2023/11/02 13:10:45;;;;;;;12.47;5.10;;;;;16.80;94972.00;;;;5024971;28;20220;-84
2023/11/02 13:13:34;;;;;;;16.63;6.43;;;;;16.90;94979.00;;;;5031117;28;20205;-84
2023/11/02 13:16:23;;;;;;;12.00;4.90;;;;;16.80;94970.00;;;;5029748;28;20241;-84
2023/11/02 13:19:15;;;;;;;20.77;7.40;;;;;16.90;94958.00;;;;5029452;28;20209;-85
2023/11/02 13:22:05;;;;;;;12.30;5.27;;;;;16.80;94970.00;;;;5030315;28;20216;-84
2023/11/02 13:24:55;;;;;;;11.57;6.17;;;;;16.40;94970.00;;;;5031814;28;20708;-85
2023/11/02 13:27:45;;;;;;;12.37;6.63;;;;;16.60;94964.00;;;;5028106;28;20198;-85
2023/11/02 13:30:36;;;;;;;16.23;10.07;;;;;16.50;94966.00;;;;5030749;28;20209;-85
2023/11/02 13:33:28;;;;;;;14.87;10.47;;;;;16.60;94960.00;;;;5021564;28;20213;-85
2023/11/02 13:36:17;;;;;;;28.80;13.60;;;;;16.40;94972.00;;;;5030249;28;20224;-85
2023/11/02 13:39:11;;;;;;;26.80;15.80;;;;;16.30;94975.00;;;;5030316;28;20220;-84
2023/11/02 13:42:00;;;;;;;14.37;10.83;;;;;15.80;94970.00;;;;5030355;28;20208;-85
2023/11/02 13:44:49;;;;;;;18.70;11.17;;;;;16.20;94964.00;;;;5031994;28;20205;-85
2023/11/02 13:47:38;;;;;;;16.23;12.27;;;;;16.40;94951.00;;;;5026892;28;20316;-85
2023/11/02 13:50:27;;;;;;;12.83;8.77;;;;;16.40;94947.00;;;;5030126;28;20670;-84
2023/11/02 13:53:16;;;;;;;22.83;10.33;;;;;16.30;94950.00;;;;5031217;28;20217;-84
2023/11/02 13:56:10;;;;;;;20.87;9.80;;;;;16.10;94931.00;;;;5036271;28;20240;-85
2023/11/02 13:58:59;;;;;;;12.20;7.57;;;;;16.20;94938.00;;;;5033251;28;20205;-84
2023/11/02 14:01:49;;;;;;;15.97;10.10;;;;;16.20;94942.00;;;;5030779;28;20197;-86
2023/11/02 14:04:37;;;;;;;12.87;10.30;;;;;16.30;94931.00;;;;5030558;28;20213;-84
2023/11/02 14:07:27;;;;;;;11.83;10.00;;;;;16.20;94928.00;;;;5033236;28;20228;-84
2023/11/02 14:10:16;;;;;;;22.93;12.73;;;;;16.10;94921.00;;;;5031130;28;20201;-85
2023/11/02 14:13:08;;;;;;;19.37;13.97;;;;;16.20;94922.00;;;;5030033;28;20281;-84
2023/11/02 14:15:57;;;;;;;19.97;18.00;;;;;15.90;94921.00;;;;5036908;28;20228;-84
2023/11/02 14:18:46;;;;;;;25.37;20.23;;;;;15.70;94920.00;;;;5032164;28;20701;-85